Wedowee, Alabama
Current Conditions -  °F | °C
As of 12:53 PM on Tuesday 21 Oct 2014 (Local Time) from KANB Reporting Station
Scattered Clouds Scattered Clouds  
Wind Chill: 24°   Ceiling: Unl
Heat Index: 24°   Visibility: 10mi
Dew Point: 13°   Wind: 10mph
Humidity: 51%   Direction: 280°W
Pressure: 30.02"   Gusts: NA
Location:  33.31°N, 85.48°W
Report Text: KANB 211753Z AUTO 28009KT 10SM SCT043 24/13 A3002 RMK AO2 SLP161 T02390133 10239 20067 58019
Loading
Personal Weather Stations






























Interactive Weather Map
Tropical Storm Tracking
New forecast layout! Learn more

10-Day Weather Forecast

Advertisements
Track Severe Weather on mobile